createdAt,value
2023-10-20T00:00:42.286Z,98127.31
2023-10-20T00:03:09.989Z,98119.19
2023-10-20T00:05:37.074Z,98122.38
2023-10-20T00:08:03.953Z,98121.47
2023-10-20T00:10:38.181Z,98122.66
2023-10-20T00:13:05.987Z,98119.19
2023-10-20T00:15:34.348Z,98117.34
2023-10-20T00:18:00.882Z,98115.78
2023-10-20T00:20:27.309Z,98111.88
2023-10-20T00:22:53.674Z,98103.66
2023-10-20T00:25:20.317Z,98100.56
2023-10-20T00:27:46.697Z,98098.28
2023-10-20T00:30:13.252Z,98102.25
2023-10-20T00:32:42.899Z,98096.31
2023-10-20T00:35:11.056Z,98092.91
2023-10-20T00:37:37.692Z,98090.59
2023-10-20T00:40:12.319Z,98091.66
2023-10-20T00:42:39.528Z,98089.72
2023-10-20T00:45:07.608Z,98078.75
2023-10-20T00:47:34.673Z,98071.69
2023-10-20T00:50:01.312Z,98072.56
2023-10-20T00:52:30.515Z,98070.31
2023-10-20T00:54:58.270Z,98051.13
2023-10-20T00:57:25.024Z,98031.47
2023-10-20T00:59:51.436Z,98028.94
2023-10-20T01:02:17.986Z,98017.63
2023-10-20T01:04:44.656Z,98011.44
2023-10-20T01:07:11.928Z,98003.66
2023-10-20T01:09:38.474Z,98000.47
2023-10-20T01:12:05.600Z,98001.75
2023-10-20T01:14:32.320Z,98006.06
2023-10-20T01:16:59.051Z,97998.91
2023-10-20T01:19:25.595Z,97999.78
2023-10-20T01:21:51.934Z,97997.84
2023-10-20T01:24:18.467Z,97999.44
2023-10-20T01:26:45.193Z,98002.28
2023-10-20T01:29:13.429Z,97998.28
2023-10-20T01:31:40.256Z,97991.56
2023-10-20T01:34:06.868Z,97995.09
2023-10-20T01:36:33.386Z,97991.31
2023-10-20T01:39:00.689Z,97984.22
2023-10-20T01:41:27.538Z,97988.56
2023-10-20T01:43:54.103Z,97980.81
2023-10-20T01:46:20.559Z,97982.03
2023-10-20T01:48:47.013Z,97980.50
2023-10-20T01:51:13.339Z,97982.13
2023-10-20T01:53:39.714Z,97965.94
2023-10-20T01:56:06.237Z,97966.38
2023-10-20T01:58:33.182Z,97969.91
2023-10-20T02:00:59.657Z,97959.31
2023-10-20T02:03:26.237Z,97952.25
2023-10-20T02:05:52.904Z,97931.50
2023-10-20T02:08:19.552Z,97917.38
2023-10-20T02:10:46.377Z,97923.97
2023-10-20T02:13:12.941Z,97920.44
2023-10-20T02:15:40.035Z,97909.22
2023-10-20T02:18:07.862Z,97912.31
2023-10-20T02:20:34.579Z,97902.94
2023-10-20T02:23:01.018Z,97898.91
2023-10-20T02:25:27.393Z,97896.16
2023-10-20T02:27:53.802Z,97895.72
2023-10-20T02:30:20.324Z,97897.75
2023-10-20T02:32:46.781Z,97889.59
2023-10-20T02:35:13.925Z,97877.84
2023-10-20T02:37:40.383Z,97874.69
2023-10-20T02:40:07.469Z,97870.44
2023-10-20T02:42:34.200Z,97853.28
2023-10-20T02:45:00.854Z,97841.91
2023-10-20T02:47:27.475Z,97850.47
2023-10-20T02:49:57.545Z,97846.59
2023-10-20T02:52:24.452Z,97829.44
2023-10-20T02:54:54.529Z,97828.72
2023-10-20T02:57:22.121Z,97825.56
2023-10-20T02:59:49.401Z,97822.50
2023-10-20T03:02:21.442Z,97818.13
2023-10-20T03:04:48.154Z,97817.84
2023-10-20T03:07:14.580Z,97817.47
2023-10-20T03:09:40.966Z,97801.47
2023-10-20T03:12:07.501Z,97782.72
2023-10-20T03:14:34.988Z,97779.97
2023-10-20T03:17:01.918Z,97765.16
2023-10-20T03:19:28.594Z,97754.47
2023-10-20T03:21:55.305Z,97766.66
2023-10-20T03:24:21.680Z,97759.59
2023-10-20T03:26:49.384Z,97763.53
2023-10-20T03:29:15.974Z,97753.75
2023-10-20T03:31:43.209Z,97753.69
2023-10-20T03:34:09.666Z,97760.03
2023-10-20T03:36:36.011Z,97754.63
2023-10-20T03:39:02.852Z,97741.00
2023-10-20T03:41:30.482Z,97739.31
2023-10-20T03:43:56.944Z,97735.00
2023-10-20T03:46:23.486Z,97743.22
2023-10-20T03:48:50.024Z,97748.72
2023-10-20T03:51:18.080Z,97736.22
2023-10-20T03:53:48.277Z,97714.75
2023-10-20T03:56:16.187Z,97707.69
2023-10-20T03:58:43.501Z,97699.75
2023-10-20T04:01:10.393Z,97690.31
2023-10-20T04:03:36.979Z,97689.03
2023-10-20T04:06:08.998Z,97685.13
2023-10-20T04:08:35.923Z,97693.78
2023-10-20T04:11:02.605Z,97676.19
2023-10-20T04:13:30.472Z,97664.06
2023-10-20T04:15:57.179Z,97673.09
2023-10-20T04:18:24.117Z,97673.97
2023-10-20T04:20:51.201Z,97663.00
2023-10-20T04:23:18.504Z,97657.38
2023-10-20T04:25:54.647Z,97647.53
2023-10-20T04:28:29.267Z,97647.13
2023-10-20T04:31:14.387Z,97645.63
2023-10-20T04:33:59.689Z,97634.25
2023-10-20T04:36:44.725Z,97613.06
2023-10-20T04:39:29.494Z,97594.63
2023-10-20T04:42:14.394Z,97582.94
2023-10-20T04:44:49.718Z,97575.75
2023-10-20T04:47:25.863Z,97561.19
2023-10-20T04:49:56.211Z,97563.19
2023-10-20T04:52:40.824Z,97565.94
2023-10-20T04:55:13.551Z,97560.03
2023-10-20T04:57:45.869Z,97549.06
2023-10-20T05:00:13.701Z,97530.66
2023-10-20T05:02:58.183Z,97525.16
2023-10-20T05:05:35.531Z,97509.84
2023-10-20T05:08:06.702Z,97506.72
2023-10-20T05:10:33.805Z,97507.47
2023-10-20T05:13:00.927Z,97504.41
2023-10-20T05:15:27.507Z,97501.63
2023-10-20T05:17:54.515Z,97499.19
2023-10-20T05:20:21.425Z,97497.22
2023-10-20T05:22:48.499Z,97492.53
2023-10-20T05:25:15.378Z,97487.81
2023-10-20T05:27:42.122Z,97487.50
2023-10-20T05:30:10.357Z,97488.66
2023-10-20T05:32:38.897Z,97470.19
2023-10-20T05:35:08.415Z,97450.28
2023-10-20T05:37:35.366Z,97448.69
2023-10-20T05:40:02.833Z,97447.47
2023-10-20T05:42:29.460Z,97460.00
2023-10-20T05:45:10.964Z,97471.75
2023-10-20T05:47:39.236Z,97471.75
2023-10-20T05:50:07.415Z,97461.91
2023-10-20T05:52:36.797Z,97456.34
2023-10-20T05:55:04.498Z,97441.50
2023-10-20T05:57:31.372Z,97435.59
2023-10-20T06:00:00.595Z,97434.53
2023-10-20T06:02:28.813Z,97429.75
2023-10-20T06:04:55.535Z,97440.66
2023-10-20T06:07:22.046Z,97439.09
2023-10-20T06:09:50.399Z,97438.34
2023-10-20T06:12:16.930Z,97441.56
2023-10-20T06:14:43.630Z,97430.13
2023-10-20T06:17:10.235Z,97423.44
2023-10-20T06:19:36.985Z,97423.44
2023-10-20T06:22:04.278Z,97419.91
2023-10-20T06:24:30.704Z,97434.38
2023-10-20T06:27:03.337Z,97439.94
2023-10-20T06:29:33.112Z,97443.81
2023-10-20T06:32:11.474Z,97437.50
2023-10-20T06:34:42.232Z,97428.56
2023-10-20T06:37:15.313Z,97432.50
2023-10-20T06:39:42.815Z,97439.09
2023-10-20T06:42:10.647Z,97422.59
2023-10-20T06:44:37.467Z,97431.66
2023-10-20T06:47:03.954Z,97431.91
2023-10-20T06:49:30.672Z,97418.28
2023-10-20T06:51:57.077Z,97433.25
2023-10-20T06:54:23.426Z,97432.44
2023-10-20T06:56:49.911Z,97431.72
2023-10-20T06:59:16.489Z,97429.06
2023-10-20T07:01:45.186Z,97425.88
2023-10-20T07:04:12.258Z,97426.53
2023-10-20T07:06:40.940Z,97427.56
2023-10-20T07:09:14.338Z,97421.38
2023-10-20T07:11:42.591Z,97422.09
2023-10-20T07:14:11.169Z,97418.50
2023-10-20T07:16:37.628Z,97407.94
2023-10-20T07:19:04.727Z,97405.19
2023-10-20T07:21:31.632Z,97406.72
2023-10-20T07:23:57.990Z,97415.00
2023-10-20T07:26:25.469Z,97410.38
2023-10-20T07:28:52.030Z,97406.72
2023-10-20T07:31:22.556Z,97405.94
2023-10-20T07:33:52.549Z,97412.13
2023-10-20T07:36:19.087Z,97407.44
2023-10-20T07:38:45.667Z,97409.81
2023-10-20T07:41:14.315Z,97412.47
2023-10-20T07:43:41.783Z,97426.59
2023-10-20T07:46:15.202Z,97419.13
2023-10-20T07:48:41.561Z,97432.38
2023-10-20T07:51:08.066Z,97428.78
2023-10-20T07:53:34.603Z,97435.41
2023-10-20T07:56:01.772Z,97430.06
2023-10-20T07:58:29.190Z,97427.75
2023-10-20T08:00:55.749Z,97428.19
2023-10-20T08:03:23.880Z,97441.00
2023-10-20T08:05:51.301Z,97444.88
2023-10-20T08:08:18.574Z,97433.22
2023-10-20T08:10:45.172Z,97423.84
2023-10-20T08:13:11.531Z,97424.34
2023-10-20T08:15:39.837Z,97429.53
2023-10-20T08:18:09.543Z,97431.91
2023-10-20T08:20:36.167Z,97433.97
2023-10-20T08:23:02.725Z,97438.94
2023-10-20T08:25:29.130Z,97426.44
2023-10-20T08:27:55.494Z,97432.75
2023-10-20T08:30:22.100Z,97432.75
2023-10-20T08:32:48.672Z,97438.22
2023-10-20T08:35:15.435Z,97438.22
2023-10-20T08:37:41.859Z,97438.22
2023-10-20T08:40:11.954Z,97440.22
2023-10-20T08:42:41.852Z,97449.97
2023-10-20T08:45:12.110Z,97450.38
2023-10-20T08:47:41.363Z,97453.13
2023-10-20T08:50:08.826Z,97451.56
2023-10-20T08:52:37.645Z,97450.75
2023-10-20T08:55:08.441Z,97446.03
2023-10-20T08:57:34.981Z,97453.13
2023-10-20T09:00:01.504Z,97446.09
2023-10-20T09:02:38.662Z,97445.69
2023-10-20T09:05:05.948Z,97441.06
2023-10-20T09:07:32.341Z,97438.28
2023-10-20T09:09:58.730Z,97440.19
2023-10-20T09:12:26.939Z,97447.66
2023-10-20T09:14:57.511Z,97452.03
2023-10-20T09:17:24.756Z,97445.41
2023-10-20T09:19:51.455Z,97447.28
2023-10-20T09:22:29.621Z,97449.34
2023-10-20T09:24:56.668Z,97443.16
2023-10-20T09:27:23.542Z,97444.78
2023-10-20T09:29:51.319Z,97442.47
2023-10-20T09:32:18.225Z,97450.16
2023-10-20T09:34:44.685Z,97440.06
2023-10-20T09:37:13.295Z,97463.53
2023-10-20T09:39:41.592Z,97466.63
2023-10-20T09:42:12.426Z,97453.63
2023-10-20T09:44:48.166Z,97443.38
2023-10-20T09:47:23.938Z,97451.31
2023-10-20T09:49:53.787Z,97447.78
2023-10-20T09:52:20.287Z,97449.84
2023-10-20T09:54:47.972Z,97455.69
2023-10-20T09:57:16.074Z,97452.56
2023-10-20T09:59:43.113Z,97453.00
2023-10-20T10:02:09.912Z,97450.28
2023-10-20T10:04:41.291Z,97448.56
2023-10-20T10:07:09.097Z,97443.53
2023-10-20T10:09:44.682Z,97440.78
2023-10-20T10:12:15.337Z,97443.94
2023-10-20T10:14:41.862Z,97432.56
2023-10-20T10:17:10.857Z,97431.47
2023-10-20T10:19:50.184Z,97432.31
2023-10-20T10:22:17.157Z,97425.34
2023-10-20T10:24:52.901Z,97428.13
2023-10-20T10:27:20.869Z,97408.09
2023-10-20T10:29:49.457Z,97410.19
2023-10-20T10:32:20.912Z,97409.84
2023-10-20T10:34:50.379Z,97405.13
2023-10-20T10:37:30.519Z,97407.44
2023-10-20T10:40:08.416Z,97401.22
2023-10-20T10:42:45.145Z,97396.53
2023-10-20T10:45:34.529Z,97402.38
2023-10-20T10:48:06.442Z,97397.94
2023-10-20T10:50:33.915Z,97386.25
2023-10-20T10:53:01.004Z,97391.72
2023-10-20T10:55:27.716Z,97381.88
2023-10-20T10:57:54.396Z,97372.19
2023-10-20T11:00:22.783Z,97360.47
2023-10-20T11:02:50.013Z,97347.84
2023-10-20T11:05:18.261Z,97347.28
2023-10-20T11:08:03.037Z,97342.09
2023-10-20T11:10:31.448Z,97329.13
2023-10-20T11:12:58.815Z,97340.84
2023-10-20T11:15:32.341Z,97329.06
2023-10-20T11:18:02.121Z,97332.22
2023-10-20T11:20:31.369Z,97334.09
2023-10-20T11:22:58.888Z,97327.97
2023-10-20T11:25:28.181Z,97312.34
2023-10-20T11:27:57.951Z,97329.72
2023-10-20T11:30:29.647Z,97329.75
2023-10-20T11:32:56.744Z,97338.34
2023-10-20T11:35:25.465Z,97325.09
2023-10-20T11:37:52.967Z,97331.28
2023-10-20T11:40:20.940Z,97324.19
2023-10-20T11:42:47.871Z,97303.81
2023-10-20T11:45:15.060Z,97301.41
2023-10-20T11:47:42.083Z,97300.69
2023-10-20T11:50:12.337Z,97300.28
2023-10-20T11:52:42.880Z,97299.50
2023-10-20T11:55:10.589Z,97303.91
2023-10-20T11:57:37.632Z,97313.31
2023-10-20T12:00:08.767Z,97307.44
2023-10-20T12:02:35.745Z,97309.44
2023-10-20T12:05:02.472Z,97307.06
2023-10-20T12:07:29.408Z,97308.66
2023-10-20T12:09:55.784Z,97302.34
2023-10-20T12:12:22.384Z,97300.81
2023-10-20T12:14:48.934Z,97291.44
2023-10-20T12:17:16.099Z,97286.00
2023-10-20T12:19:42.805Z,97284.47
2023-10-20T12:22:11.723Z,97289.16
2023-10-20T12:24:38.072Z,97283.28
2023-10-20T12:27:04.832Z,97276.69
2023-10-20T12:29:31.570Z,97275.97
2023-10-20T12:32:00.063Z,97278.22
2023-10-20T12:34:27.505Z,97264.22
2023-10-20T12:36:54.050Z,97269.69
2023-10-20T12:39:21.518Z,97273.59
2023-10-20T12:41:51.176Z,97274.34
2023-10-20T12:44:19.530Z,97271.22
2023-10-20T12:46:46.011Z,97279.91
2023-10-20T12:49:15.045Z,97279.53
2023-10-20T12:51:42.642Z,97291.66
2023-10-20T12:54:09.052Z,97287.22
2023-10-20T12:56:35.549Z,97293.09
2023-10-20T12:59:01.999Z,97295.44
2023-10-20T13:01:28.585Z,97293.09
2023-10-20T13:03:55.170Z,97295.41
2023-10-20T13:06:21.758Z,97294.56
2023-10-20T13:08:48.183Z,97296.19
2023-10-20T13:11:14.686Z,97297.31
2023-10-20T13:13:41.790Z,97296.25
2023-10-20T13:16:09.355Z,97290.81
2023-10-20T13:18:39.186Z,97301.78
2023-10-20T13:21:08.715Z,97297.50
2023-10-20T13:23:35.354Z,97285.34
2023-10-20T13:26:07.844Z,97294.66
2023-10-20T13:28:35.759Z,97295.06
2023-10-20T13:31:12.381Z,97290.13
2023-10-20T13:33:40.870Z,97299.47
2023-10-20T13:36:11.133Z,97297.13
2023-10-20T13:38:39.044Z,97308.09
2023-10-20T13:41:06.684Z,97309.69
2023-10-20T13:43:33.417Z,97316.72
2023-10-20T13:46:00.116Z,97311.91
2023-10-20T13:48:27.131Z,97304.88
2023-10-20T13:50:53.721Z,97313.81
2023-10-20T13:53:20.213Z,97322.13
2023-10-20T13:55:47.189Z,97293.16
2023-10-20T13:58:15.117Z,97299.41
2023-10-20T14:00:41.978Z,97310.41
2023-10-20T14:03:08.683Z,97306.38
2023-10-20T14:05:35.873Z,97313.88
2023-10-20T14:08:02.866Z,97325.19
2023-10-20T14:10:29.321Z,97356.56
2023-10-20T14:12:59.028Z,97372.63
2023-10-20T14:15:25.761Z,97378.56
2023-10-20T14:17:52.183Z,97369.53
2023-10-20T14:20:19.019Z,97398.88
2023-10-20T14:22:45.689Z,97403.69
2023-10-20T14:25:12.302Z,97417.53
2023-10-20T14:27:40.439Z,97425.03
2023-10-20T14:30:08.141Z,97436.06
2023-10-20T14:32:35.159Z,97443.88
2023-10-20T14:35:01.860Z,97450.97
2023-10-20T14:37:28.411Z,97465.09
2023-10-20T14:39:54.973Z,97470.13
2023-10-20T14:42:21.478Z,97475.63
2023-10-20T14:44:49.730Z,97491.28
2023-10-20T14:47:16.094Z,97500.25
2023-10-20T14:49:42.714Z,97514.25
2023-10-20T14:52:09.045Z,97516.97
2023-10-20T14:54:35.379Z,97538.81
2023-10-20T14:57:01.787Z,97539.09
2023-10-20T14:59:28.279Z,97544.91
2023-10-20T15:01:54.873Z,97559.44
2023-10-20T15:04:29.925Z,97549.47
2023-10-20T15:06:57.849Z,97555.56
2023-10-20T15:09:24.875Z,97557.19
2023-10-20T15:11:52.488Z,97555.50
2023-10-20T15:14:19.025Z,97552.00
2023-10-20T15:16:45.434Z,97568.06
2023-10-20T15:19:12.045Z,97571.16
2023-10-20T15:21:38.459Z,97576.13
2023-10-20T15:24:05.496Z,97572.25
2023-10-20T15:26:31.972Z,97566.41
2023-10-20T15:28:58.746Z,97567.97
2023-10-20T15:31:25.183Z,97573.19
2023-10-20T15:33:51.739Z,97576.19
2023-10-20T15:36:18.248Z,97576.19
2023-10-20T15:38:45.577Z,97578.56
2023-10-20T15:41:14.902Z,97585.19
2023-10-20T15:43:41.492Z,97588.75
2023-10-20T15:46:08.276Z,97592.63
2023-10-20T15:48:36.221Z,97599.69
2023-10-20T15:51:05.279Z,97590.31
2023-10-20T15:53:31.818Z,97592.28
2023-10-20T15:55:58.312Z,97593.06
2023-10-20T15:58:24.761Z,97595.09
2023-10-20T16:00:58.306Z,97601.34
2023-10-20T16:03:25.002Z,97596.38
2023-10-20T16:05:51.531Z,97599.53
2023-10-20T16:08:17.933Z,97595.34
2023-10-20T16:10:44.419Z,97607.75
2023-10-20T16:13:10.820Z,97608.47
2023-10-20T16:15:37.182Z,97609.47
2023-10-20T16:18:04.075Z,97614.09
2023-10-20T16:20:30.607Z,97610.66
2023-10-20T16:22:57.034Z,97609.13
2023-10-20T16:25:23.486Z,97616.03
2023-10-20T16:27:49.942Z,97628.22
2023-10-20T16:30:16.377Z,97629.22
2023-10-20T16:32:42.953Z,97643.19
2023-10-20T16:35:10.360Z,97644.78
2023-10-20T16:37:37.194Z,97659.13
2023-10-20T16:40:05.028Z,97658.63
2023-10-20T16:42:31.383Z,97659.25
2023-10-20T16:44:57.787Z,97665.53
2023-10-20T16:47:24.332Z,97669.41
2023-10-20T16:49:51.985Z,97680.34
2023-10-20T16:52:18.613Z,97673.31
2023-10-20T16:54:48.372Z,97682.66
2023-10-20T16:57:14.725Z,97683.34
2023-10-20T16:59:41.094Z,97690.25
2023-10-20T17:02:07.625Z,97695.28
2023-10-20T17:04:34.571Z,97691.25
2023-10-20T17:07:01.012Z,97696.03
2023-10-20T17:09:31.179Z,97693.16
2023-10-20T17:11:57.521Z,97696.75
2023-10-20T17:14:23.866Z,97705.19
2023-10-20T17:16:50.332Z,97709.84
2023-10-20T17:19:16.679Z,97706.53
2023-10-20T17:21:43.183Z,97707.22
2023-10-20T17:24:11.222Z,97713.13
2023-10-20T17:26:37.788Z,97715.44
2023-10-20T17:29:04.581Z,97722.75
2023-10-20T17:31:31.068Z,97721.69
2023-10-20T17:33:57.939Z,97733.97
2023-10-20T17:36:24.315Z,97726.56
2023-10-20T17:38:51.344Z,97733.44
2023-10-20T17:41:17.902Z,97745.38
2023-10-20T17:43:44.477Z,97746.56
2023-10-20T17:46:18.150Z,97755.47
2023-10-20T17:48:45.003Z,97759.19
2023-10-20T17:51:11.724Z,97752.81
2023-10-20T17:53:38.304Z,97767.47
2023-10-20T17:56:05.728Z,97764.63
2023-10-20T17:58:32.946Z,97760.66
2023-10-20T18:01:11.413Z,97766.47
2023-10-20T18:03:43.419Z,97768.22
2023-10-20T18:06:18.495Z,97773.69
2023-10-20T18:08:50.618Z,97773.44
2023-10-20T18:11:18.738Z,97763.97
2023-10-20T18:13:46.594Z,97771.03
2023-10-20T18:16:16.236Z,97776.06
2023-10-20T18:18:49.506Z,97784.03
2023-10-20T18:21:19.054Z,97783.94
2023-10-20T18:23:47.669Z,97787.00
2023-10-20T18:26:14.845Z,97787.00
2023-10-20T18:28:41.840Z,97798.66
2023-10-20T18:31:15.486Z,97791.59
2023-10-20T18:33:42.172Z,97786.94
2023-10-20T18:36:09.443Z,97793.19
2023-10-20T18:38:35.857Z,97789.13
2023-10-20T18:41:06.232Z,97774.91
2023-10-20T18:43:34.621Z,97784.78
2023-10-20T18:46:01.524Z,97790.69
2023-10-20T18:48:28.491Z,97798.53
2023-10-20T18:51:07.609Z,97798.44
2023-10-20T18:53:34.643Z,97811.34
2023-10-20T18:56:01.919Z,97812.16
2023-10-20T18:58:28.773Z,97813.53
2023-10-20T19:00:55.307Z,97804.75
2023-10-20T19:03:21.920Z,97805.19
2023-10-20T19:05:49.522Z,97802.72
2023-10-20T19:08:16.799Z,97809.19
2023-10-20T19:10:43.184Z,97813.41
2023-10-20T19:13:09.619Z,97809.44
2023-10-20T19:15:36.057Z,97811.03
2023-10-20T19:18:02.717Z,97808.56
2023-10-20T19:20:29.406Z,97810.25
2023-10-20T19:22:55.824Z,97808.91
2023-10-20T19:25:22.274Z,97815.44
2023-10-20T19:27:48.717Z,97816.94
2023-10-20T19:30:15.392Z,97815.44
2023-10-20T19:32:41.829Z,97821.72
2023-10-20T19:35:10.109Z,97818.53
2023-10-20T19:37:38.207Z,97820.13
2023-10-20T19:40:05.675Z,97827.06
2023-10-20T19:42:32.460Z,97832.97
2023-10-20T19:44:59.593Z,97834.03
2023-10-20T19:47:26.292Z,97837.09
2023-10-20T19:49:52.805Z,97848.56
2023-10-20T19:52:19.125Z,97847.41
2023-10-20T19:54:45.582Z,97845.47
2023-10-20T19:57:11.970Z,97845.28
2023-10-20T19:59:38.565Z,97848.47
2023-10-20T20:02:05.732Z,97861.00
2023-10-20T20:04:33.930Z,97859.50
2023-10-20T20:07:00.684Z,97865.63
2023-10-20T20:09:27.019Z,97865.63
2023-10-20T20:11:54.156Z,97872.69
2023-10-20T20:14:20.574Z,97873.38
2023-10-20T20:16:48.985Z,97875.66
2023-10-20T20:19:16.002Z,97879.06
2023-10-20T20:21:42.556Z,97882.34
2023-10-20T20:24:09.516Z,97879.53
2023-10-20T20:26:35.999Z,97880.66
2023-10-20T20:29:04.038Z,97879.03
2023-10-20T20:31:30.564Z,97883.59
2023-10-20T20:33:56.976Z,97883.38
2023-10-20T20:36:23.633Z,97889.19
2023-10-20T20:38:50.223Z,97888.84
2023-10-20T20:41:16.828Z,97886.56
2023-10-20T20:43:43.847Z,97886.56
2023-10-20T20:46:11.121Z,97890.88
2023-10-20T20:48:37.707Z,97894.31
2023-10-20T20:51:09.309Z,97900.56
2023-10-20T20:53:35.816Z,97895.75
2023-10-20T20:56:02.400Z,97899.75
2023-10-20T20:58:28.750Z,97898.28
2023-10-20T21:00:56.231Z,97895.66
2023-10-20T21:03:22.896Z,97903.16
2023-10-20T21:05:58.969Z,97897.69
2023-10-20T21:08:26.008Z,97897.69
2023-10-20T21:10:52.357Z,97894.06
2023-10-20T21:13:18.842Z,97899.06
2023-10-20T21:15:45.199Z,97904.63
2023-10-20T21:18:11.650Z,97898.28
2023-10-20T21:20:38.930Z,97910.22
2023-10-20T21:23:05.317Z,97910.44
2023-10-20T21:25:37.868Z,97909.31
2023-10-20T21:28:04.938Z,97910.88
2023-10-20T21:30:31.987Z,97912.38
2023-10-20T21:32:58.405Z,97917.91
2023-10-20T21:35:24.865Z,97921.09
2023-10-20T21:37:51.260Z,97917.59
2023-10-20T21:40:17.601Z,97911.47
2023-10-20T21:42:44.078Z,97922.59
2023-10-20T21:45:10.502Z,97932.72
2023-10-20T21:47:36.985Z,97921.81
2023-10-20T21:50:03.625Z,97919.53
2023-10-20T21:52:30.012Z,97920.75
2023-10-20T21:54:56.644Z,97925.44
2023-10-20T21:57:23.113Z,97919.72
2023-10-20T21:59:49.509Z,97924.97
2023-10-20T22:02:16.516Z,97922.19
2023-10-20T22:04:43.062Z,97925.34
2023-10-20T22:07:09.458Z,97930.69
2023-10-20T22:09:50.438Z,97934.81
2023-10-20T22:12:19.882Z,97941.53
2023-10-20T22:14:46.237Z,97943.03
2023-10-20T22:17:12.680Z,97939.66
2023-10-20T22:19:39.126Z,97945.97
2023-10-20T22:22:05.500Z,97943.78
2023-10-20T22:24:32.005Z,97945.47
2023-10-20T22:26:58.599Z,97941.84
2023-10-20T22:29:25.063Z,97940.63
2023-10-20T22:31:51.806Z,97945.44
2023-10-20T22:34:18.156Z,97943.94
2023-10-20T22:36:44.565Z,97944.41
2023-10-20T22:39:11.056Z,97955.19
2023-10-20T22:41:37.546Z,97952.91
2023-10-20T22:44:04.198Z,97943.25
2023-10-20T22:46:30.709Z,97939.72
2023-10-20T22:48:57.081Z,97927.81
2023-10-20T22:51:23.462Z,97932.72
2023-10-20T22:53:49.927Z,97930.91
2023-10-20T22:56:16.339Z,97923.63
2023-10-20T22:58:42.717Z,97928.75
2023-10-20T23:01:09.188Z,97926.47
2023-10-20T23:03:36.020Z,97923.06
2023-10-20T23:06:02.854Z,97930.44
2023-10-20T23:08:29.876Z,97927.72
2023-10-20T23:10:56.865Z,97937.72
2023-10-20T23:13:23.441Z,97941.59
2023-10-20T23:15:49.783Z,97944.78
2023-10-20T23:18:16.328Z,97947.16
2023-10-20T23:20:43.461Z,97943.88
2023-10-20T23:23:09.969Z,97947.53
2023-10-20T23:25:36.394Z,97941.28
2023-10-20T23:28:04.002Z,97946.03
2023-10-20T23:30:30.436Z,97955.84
2023-10-20T23:32:56.956Z,97953.22
2023-10-20T23:35:25.171Z,97954.13
2023-10-20T23:37:51.723Z,97959.47
2023-10-20T23:40:18.553Z,97966.63
2023-10-20T23:42:44.971Z,97961.28
2023-10-20T23:45:11.444Z,97961.16
2023-10-20T23:47:38.026Z,97958.00
2023-10-20T23:50:06.570Z,97965.06
2023-10-20T23:52:33.620Z,97961.88
2023-10-20T23:55:00.021Z,97975.97
2023-10-20T23:57:26.661Z,97966.75
2023-10-20T23:59:53.102Z,97969.16
